createdAt,value
2022-09-25T00:02:43.535Z,10.47
2022-09-25T00:07:45.049Z,10.44
2022-09-25T00:12:46.595Z,10.41
2022-09-25T00:17:48.518Z,10.39
2022-09-25T00:22:50.926Z,10.35
2022-09-25T00:27:53.403Z,10.34
2022-09-25T00:32:54.846Z,10.34
2022-09-25T00:37:56.331Z,10.33
2022-09-25T00:42:57.770Z,10.33
2022-09-25T00:48:00.834Z,10.33
2022-09-25T00:53:13.183Z,10.35
2022-09-25T00:58:19.652Z,10.46
2022-09-25T01:03:22.741Z,10.67
2022-09-25T01:08:27.761Z,10.85
2022-09-25T01:13:30.066Z,10.83
2022-09-25T01:19:12.096Z,10.67
2022-09-25T01:24:30.462Z,10.48
2022-09-25T01:29:53.765Z,10.31
2022-09-25T01:35:39.815Z,10.27
2022-09-25T01:41:11.260Z,10.18
2022-09-25T01:46:19.501Z,10.08
2022-09-25T01:51:26.879Z,9.99
2022-09-25T01:56:33.871Z,9.92
2022-09-25T02:01:42.455Z,9.85
2022-09-25T02:06:48.020Z,9.78
2022-09-25T02:11:53.711Z,9.72
2022-09-25T02:16:58.362Z,9.64
2022-09-25T02:22:17.318Z,9.59
2022-09-25T02:27:20.392Z,9.56
2022-09-25T02:32:28.091Z,9.48
2022-09-25T02:37:29.820Z,9.42
2022-09-25T02:42:59.947Z,9.41
2022-09-25T02:48:19.116Z,9.36
2022-09-25T02:53:37.086Z,9.30
2022-09-25T02:58:42.872Z,9.27
2022-09-25T03:03:50.624Z,9.20
2022-09-25T03:08:56.683Z,9.16
2022-09-25T03:14:00.723Z,9.13
2022-09-25T03:19:03.417Z,9.06
2022-09-25T03:24:05.002Z,9.04
2022-09-25T03:29:06.490Z,9.01
2022-09-25T03:34:08.487Z,9.02
2022-09-25T03:39:10.855Z,8.99
2022-09-25T03:44:12.704Z,8.96
2022-09-25T03:49:14.271Z,8.90
2022-09-25T03:54:15.739Z,8.82
2022-09-25T03:59:17.189Z,8.79
2022-09-25T04:04:18.639Z,8.78
2022-09-25T04:09:20.096Z,8.73
2022-09-25T04:14:21.954Z,8.69
2022-09-25T04:19:23.439Z,8.67
2022-09-25T04:24:43.479Z,8.66
2022-09-25T04:29:45.527Z,8.66
2022-09-25T04:34:47.052Z,8.64
2022-09-25T04:39:48.889Z,8.62
2022-09-25T04:44:52.445Z,8.62
2022-09-25T04:49:54.012Z,8.61
2022-09-25T04:54:56.234Z,8.57
2022-09-25T04:59:57.877Z,8.52
2022-09-25T05:04:59.411Z,8.53
2022-09-25T05:10:00.886Z,8.58
2022-09-25T05:15:02.411Z,8.57
2022-09-25T05:20:04.110Z,8.55
2022-09-25T05:25:06.096Z,8.50
2022-09-25T05:30:11.145Z,8.45
2022-09-25T05:35:13.621Z,8.40
2022-09-25T05:40:17.735Z,8.34
2022-09-25T05:45:21.612Z,8.29
2022-09-25T05:50:23.091Z,8.25
2022-09-25T05:55:25.389Z,8.26
2022-09-25T06:00:28.098Z,8.30
2022-09-25T06:05:30.303Z,8.33
2022-09-25T06:10:32.034Z,8.45
2022-09-25T06:15:37.405Z,8.61
2022-09-25T06:20:39.053Z,8.74
2022-09-25T06:25:41.106Z,8.88
2022-09-25T06:30:42.674Z,8.99
2022-09-25T06:35:46.422Z,9.10
2022-09-25T06:40:47.979Z,9.22
2022-09-25T06:45:50.097Z,9.46
2022-09-25T06:50:55.049Z,9.80
2022-09-25T06:55:58.159Z,10.14
2022-09-25T07:00:59.720Z,10.44
2022-09-25T07:06:02.295Z,10.78
2022-09-25T07:11:04.382Z,11.02
2022-09-25T07:16:08.085Z,11.23
2022-09-25T07:21:18.324Z,11.82
2022-09-25T07:26:24.827Z,12.00
2022-09-25T07:31:28.846Z,12.09
2022-09-25T07:36:30.335Z,12.05
2022-09-25T07:41:32.090Z,12.13
2022-09-25T07:46:33.607Z,12.24
2022-09-25T07:51:36.314Z,12.35
2022-09-25T07:56:38.326Z,12.52
2022-09-25T08:01:44.148Z,12.62
2022-09-25T08:06:47.858Z,12.77
2022-09-25T08:11:49.400Z,13.00
2022-09-25T08:16:55.743Z,13.08
2022-09-25T08:21:57.232Z,13.07
2022-09-25T08:26:58.700Z,13.12
2022-09-25T08:32:00.410Z,13.19
2022-09-25T08:37:02.041Z,13.39
2022-09-25T08:42:05.652Z,13.50
2022-09-25T08:47:33.523Z,13.57
2022-09-25T08:52:35.611Z,13.77
2022-09-25T08:57:44.011Z,14.00
2022-09-25T09:02:50.440Z,14.21
2022-09-25T09:08:04.241Z,14.39
2022-09-25T09:13:18.363Z,14.58
2022-09-25T09:18:29.340Z,14.72
2022-09-25T09:23:36.323Z,14.94
2022-09-25T09:28:54.849Z,15.40
2022-09-25T09:34:18.079Z,15.67
2022-09-25T09:39:32.356Z,15.69
2022-09-25T09:44:57.669Z,15.51
2022-09-25T09:50:14.200Z,15.43
2022-09-25T09:55:31.662Z,15.26
2022-09-25T10:00:34.726Z,15.24
2022-09-25T10:05:48.860Z,15.43
2022-09-25T10:10:58.473Z,15.71
2022-09-25T10:16:11.658Z,15.97
2022-09-25T10:21:22.555Z,15.80
2022-09-25T10:26:36.928Z,15.75
2022-09-25T10:31:40.650Z,15.85
2022-09-25T10:36:47.512Z,15.82
2022-09-25T10:41:49.230Z,15.85
2022-09-25T10:47:10.101Z,15.92
2022-09-25T10:52:21.211Z,15.91
2022-09-25T10:57:38.049Z,15.70
2022-09-25T11:02:43.427Z,15.20
2022-09-25T11:07:52.361Z,14.73
2022-09-25T11:12:54.414Z,14.50
2022-09-25T11:17:57.142Z,14.47
2022-09-25T11:23:08.372Z,14.62
2022-09-25T11:28:20.157Z,14.73
2022-09-25T11:33:36.503Z,14.80
2022-09-25T11:39:10.335Z,14.93
2022-09-25T11:44:39.782Z,15.10
2022-09-25T11:49:42.339Z,15.19
2022-09-25T11:55:21.202Z,15.31
2022-09-25T12:01:01.239Z,15.50
2022-09-25T12:06:27.359Z,15.64
2022-09-25T12:11:45.849Z,15.76
2022-09-25T12:16:47.965Z,15.71
2022-09-25T12:21:52.905Z,15.56
2022-09-25T12:27:14.730Z,15.42
2022-09-25T12:32:32.189Z,15.40
2022-09-25T12:37:43.409Z,15.48
2022-09-25T12:43:07.910Z,15.55
2022-09-25T12:48:14.256Z,15.58
2022-09-25T12:54:05.318Z,15.47
2022-09-25T12:59:13.698Z,15.36
2022-09-25T13:04:23.866Z,15.27
2022-09-25T13:09:34.726Z,15.21
2022-09-25T13:14:42.749Z,15.17
2022-09-25T13:19:44.273Z,15.13
2022-09-25T13:25:13.349Z,15.17
2022-09-25T13:30:26.046Z,15.15
2022-09-25T13:35:27.871Z,15.08
2022-09-25T13:40:46.003Z,14.96
2022-09-25T13:45:50.205Z,14.84
2022-09-25T13:51:18.047Z,14.77
2022-09-25T13:56:24.397Z,14.70
2022-09-25T14:01:39.527Z,14.70
2022-09-25T14:06:47.709Z,14.71
2022-09-25T14:12:11.998Z,14.68
2022-09-25T14:17:16.518Z,14.58
2022-09-25T14:22:46.398Z,14.53
2022-09-25T14:27:52.846Z,14.55
2022-09-25T14:33:13.090Z,14.57
2022-09-25T14:38:20.298Z,14.58
2022-09-25T14:43:41.649Z,14.62
2022-09-25T14:48:51.508Z,14.60
2022-09-25T14:54:02.197Z,14.56
2022-09-25T14:59:15.988Z,14.51
2022-09-25T15:04:34.363Z,14.42
2022-09-25T15:09:38.610Z,14.32
2022-09-25T15:14:40.046Z,14.34
2022-09-25T15:19:45.548Z,14.40
2022-09-25T15:25:07.960Z,14.47
2022-09-25T15:30:17.094Z,14.50
2022-09-25T15:35:23.599Z,14.46
2022-09-25T15:40:30.352Z,14.40
2022-09-25T15:45:38.003Z,14.40
2022-09-25T15:50:43.658Z,14.39
2022-09-25T15:55:46.382Z,14.39
2022-09-25T16:01:16.373Z,14.38
2022-09-25T16:06:18.295Z,14.30
2022-09-25T16:11:24.844Z,14.19
2022-09-25T16:16:31.445Z,14.11
2022-09-25T16:21:39.160Z,13.99
2022-09-25T16:26:42.920Z,13.91
2022-09-25T16:31:45.401Z,13.85
2022-09-25T16:36:48.521Z,13.82
2022-09-25T16:41:50.334Z,13.81
2022-09-25T16:46:52.218Z,13.76
2022-09-25T16:51:55.405Z,13.76
2022-09-25T16:56:58.954Z,13.73
2022-09-25T17:02:04.871Z,13.72
2022-09-25T17:07:08.538Z,13.71
2022-09-25T17:12:19.982Z,13.72
2022-09-25T17:17:22.061Z,13.76
2022-09-25T17:22:29.402Z,13.75
2022-09-25T17:27:30.873Z,13.75
2022-09-25T17:32:33.008Z,13.69
2022-09-25T17:37:34.472Z,13.63
2022-09-25T17:42:36.002Z,13.54
2022-09-25T17:47:37.482Z,13.43
2022-09-25T17:52:38.934Z,13.23
2022-09-25T17:57:40.507Z,13.04
2022-09-25T18:02:42.235Z,12.89
2022-09-25T18:07:43.920Z,12.77
2022-09-25T18:12:45.394Z,12.64
2022-09-25T18:17:46.846Z,12.55
2022-09-25T18:22:48.828Z,12.48
2022-09-25T18:27:50.554Z,12.41
2022-09-25T18:32:52.268Z,12.49
2022-09-25T18:37:53.801Z,12.53
2022-09-25T18:42:55.268Z,12.53
2022-09-25T18:47:57.391Z,12.58
2022-09-25T18:52:59.192Z,12.64
2022-09-25T18:58:01.202Z,12.65
2022-09-25T19:03:03.146Z,12.71
2022-09-25T19:08:04.980Z,12.74
2022-09-25T19:13:06.915Z,12.72
2022-09-25T19:18:08.413Z,12.76
2022-09-25T19:23:09.881Z,12.75
2022-09-25T19:28:11.350Z,12.73
2022-09-25T19:33:12.876Z,12.73
2022-09-25T19:38:14.351Z,12.73
2022-09-25T19:43:15.813Z,12.72
2022-09-25T19:48:17.470Z,12.68
2022-09-25T19:53:19.018Z,12.73
2022-09-25T19:58:23.665Z,12.71
2022-09-25T20:03:25.333Z,12.67
2022-09-25T20:08:26.884Z,12.61
2022-09-25T20:13:28.377Z,12.53
2022-09-25T20:18:29.824Z,12.49
2022-09-25T20:23:31.393Z,12.40
2022-09-25T20:28:32.872Z,12.33
2022-09-25T20:33:35.717Z,12.34
2022-09-25T20:38:37.344Z,12.33
2022-09-25T20:43:39.671Z,12.31
2022-09-25T20:48:45.512Z,12.32
2022-09-25T20:53:55.272Z,12.35
2022-09-25T20:58:57.783Z,12.37
2022-09-25T21:04:01.589Z,12.42
2022-09-25T21:09:07.108Z,12.41
2022-09-25T21:14:15.307Z,12.48
2022-09-25T21:19:18.606Z,12.50
2022-09-25T21:24:21.616Z,12.50
2022-09-25T21:29:23.074Z,12.51
2022-09-25T21:34:24.523Z,12.49
2022-09-25T21:39:26.000Z,12.47
2022-09-25T21:44:27.533Z,12.47
2022-09-25T21:49:29.461Z,12.45
2022-09-25T21:54:31.572Z,12.43
2022-09-25T21:59:33.016Z,12.39
2022-09-25T22:04:34.479Z,12.39
2022-09-25T22:09:35.967Z,12.33
2022-09-25T22:14:37.468Z,12.31
2022-09-25T22:19:39.055Z,12.29
2022-09-25T22:24:40.511Z,12.27
2022-09-25T22:29:41.979Z,12.27
2022-09-25T22:34:43.449Z,12.25
2022-09-25T22:39:44.906Z,12.28
2022-09-25T22:44:46.362Z,12.26
2022-09-25T22:49:47.830Z,12.26
2022-09-25T22:54:49.297Z,12.26
2022-09-25T22:59:50.842Z,12.24
2022-09-25T23:04:53.908Z,12.22
2022-09-25T23:09:55.487Z,12.23
2022-09-25T23:14:56.951Z,12.24
2022-09-25T23:19:58.423Z,12.23
2022-09-25T23:24:59.894Z,12.26
2022-09-25T23:30:01.394Z,12.27
2022-09-25T23:35:03.030Z,12.27
2022-09-25T23:40:04.784Z,12.29
2022-09-25T23:45:07.133Z,12.32
2022-09-25T23:50:08.967Z,12.37
2022-09-25T23:55:11.232Z,12.40
